Time;durP1;ratioP1;P1;durP2;ratioP2;P2;SDS_P1;SDS_P2;PMS_P1;PMS_P2;Temp;Humidity;BMP_temperature;BMP_pressure;BME280_temperature;BME280_humidity;BME280_pressure;Samples;Min_cycle;Max_cycle;Signal;HPM_P1;HPM_P2
2022/09/01 00:00:55;;;;;;;2.13;0.90;;;;;;;;;;5013580;28;20061;-51
2022/09/01 00:03:24;;;;;;;2.42;0.90;;;;;;;;;;5013202;28;20107;-49
2022/09/01 00:05:53;;;;;;;1.38;0.73;;;;;;;;;;5013298;28;20060;-51
2022/09/01 00:08:24;;;;;;;2.05;0.85;;;;;;;;;;5013438;28;20046;-51
2022/09/01 00:10:51;;;;;;;2.97;0.80;;;;;;;;;;5012899;28;20137;-52
2022/09/01 00:13:21;;;;;;;2.65;0.90;;;;;;;;;;4996093;28;20054;-49
2022/09/01 00:15:51;;;;;;;5.57;1.27;;;;;;;;;;4997444;28;20062;-51
2022/09/01 00:18:22;;;;;;;1.42;0.80;;;;;;;;;;4997296;28;20065;-50
2022/09/01 00:20:48;;;;;;;2.45;0.70;;;;;;;;;;4996874;28;20100;-49
2022/09/01 00:23:17;;;;;;;4.13;1.20;;;;;;;;;;4992413;28;20058;-50
2022/09/01 00:25:44;;;;;;;4.13;0.80;;;;;;;;;;4996776;28;20108;-49
2022/09/01 00:28:12;;;;;;;2.00;0.80;;;;;;;;;;4997169;28;20069;-50
2022/09/01 00:30:40;;;;;;;2.03;0.70;;;;;;;;;;4994656;28;20141;-49
2022/09/01 00:33:10;;;;;;;1.52;0.60;;;;;;;;;;4997170;28;20378;-49
2022/09/01 00:35:37;;;;;;;1.42;0.55;;;;;;;;;;4997412;28;20144;-51
2022/09/01 00:38:05;;;;;;;3.13;0.85;;;;;;;;;;4997013;28;20390;-51
2022/09/01 00:40:35;;;;;;;2.08;0.90;;;;;;;;;;4997099;28;20053;-49
2022/09/01 00:43:13;;;;;;;2.20;1.00;;;;;;;;;;4997002;28;20058;-52
2022/09/01 00:45:43;;;;;;;1.25;0.43;;;;;;;;;;4997118;28;20062;-52
2022/09/01 00:48:13;;;;;;;2.53;0.50;;;;;;;;;;4996747;28;20613;-49
2022/09/01 00:50:41;;;;;;;2.40;0.40;;;;;;;;;;4997143;28;20054;-50
2022/09/01 00:53:12;;;;;;;2.67;0.77;;;;;;;;;;4985816;28;20055;-50
2022/09/01 00:55:40;;;;;;;1.45;0.55;;;;;;;;;;4977344;28;20508;-50
2022/09/01 00:58:07;;;;;;;1.02;0.60;;;;;;;;;;5004771;28;20360;-49
2022/09/01 01:00:39;;;;;;;1.13;0.50;;;;;;;;;;5016275;28;20060;-52
2022/09/01 01:03:11;;;;;;;2.10;0.50;;;;;;;;;;5016085;28;20375;-50
2022/09/01 01:05:52;;;;;;;1.33;0.70;;;;;;;;;;5016402;28;20414;-52
2022/09/01 01:08:20;;;;;;;1.58;0.60;;;;;;;;;;5016494;28;20058;-52
2022/09/01 01:10:49;;;;;;;1.23;0.40;;;;;;;;;;5016267;28;20064;-51
2022/09/01 01:13:17;;;;;;;1.10;0.47;;;;;;;;;;4995661;28;20054;-51
2022/09/01 01:15:47;;;;;;;1.55;0.63;;;;;;;;;;4996698;28;20066;-52
2022/09/01 01:18:17;;;;;;;1.08;0.50;;;;;;;;;;4996545;28;20082;-50
2022/09/01 01:23:41;;;;;;;1.70;0.50;;;;;;;;;;4954263;28;20764;-49
2022/09/01 01:26:13;;;;;;;1.52;0.20;;;;;;;;;;4955182;29;20159;-51
2022/09/01 01:28:43;;;;;;;3.33;0.68;;;;;;;;;;4980796;28;20140;-49
2022/09/01 01:31:11;;;;;;;1.10;0.38;;;;;;;;;;4996547;28;20132;-51
2022/09/01 01:33:48;;;;;;;1.50;0.40;;;;;;;;;;4996149;28;20054;-52
2022/09/01 01:36:18;;;;;;;2.53;0.50;;;;;;;;;;4996470;28;20121;-49
2022/09/01 01:38:48;;;;;;;0.52;0.28;;;;;;;;;;4996267;28;20065;-51
2022/09/01 01:41:18;;;;;;;1.33;0.40;;;;;;;;;;4996056;28;20058;-52
2022/09/01 01:43:47;;;;;;;1.05;0.30;;;;;;;;;;4996188;28;20141;-51
2022/09/01 01:46:17;;;;;;;0.50;0.20;;;;;;;;;;4996018;28;20054;-52
2022/09/01 01:48:46;;;;;;;0.40;0.13;;;;;;;;;;4996078;28;20050;-50
2022/09/01 01:51:16;;;;;;;0.47;0.30;;;;;;;;;;4995775;28;20088;-53
2022/09/01 01:53:44;;;;;;;1.85;0.30;;;;;;;;;;4996178;28;20113;-51
2022/09/01 01:56:13;;;;;;;1.35;0.30;;;;;;;;;;4995896;28;20051;-50
2022/09/01 01:58:57;;;;;;;1.23;0.30;;;;;;;;;;5014167;28;20045;-52
2022/09/01 02:01:27;;;;;;;1.80;0.40;;;;;;;;;;5015244;28;20104;-49
2022/09/01 02:03:57;;;;;;;1.52;0.20;;;;;;;;;;5015416;28;20062;-50
2022/09/01 02:06:33;;;;;;;0.45;0.28;;;;;;;;;;5015320;28;20054;-49
2022/09/01 02:09:02;;;;;;;1.65;0.20;;;;;;;;;;5015256;28;20046;-52
2022/09/01 02:11:31;;;;;;;0.50;0.20;;;;;;;;;;4994704;28;20058;-50
2022/09/01 02:14:06;;;;;;;0.75;0.32;;;;;;;;;;4995564;28;20105;-51
2022/09/01 02:16:37;;;;;;;0.63;0.30;;;;;;;;;;4995420;28;20046;-51
2022/09/01 02:19:07;;;;;;;0.50;0.30;;;;;;;;;;4995451;28;20058;-50
2022/09/01 02:21:35;;;;;;;1.08;0.30;;;;;;;;;;4994721;28;20061;-51
2022/09/01 02:24:07;;;;;;;0.38;0.20;;;;;;;;;;4995014;28;20559;-52
2022/09/01 02:26:37;;;;;;;0.35;0.20;;;;;;;;;;4995625;28;20447;-53
2022/09/01 02:29:16;;;;;;;0.40;0.35;;;;;;;;;;4995541;28;20137;-49
2022/09/01 02:31:52;;;;;;;0.38;0.28;;;;;;;;;;4995147;28;20054;-51
2022/09/01 02:34:19;;;;;;;1.48;0.38;;;;;;;;;;4994893;28;20379;-50
2022/09/01 02:36:47;;;;;;;0.70;0.40;;;;;;;;;;4994446;28;20046;-50
2022/09/01 02:39:13;;;;;;;0.70;0.40;;;;;;;;;;4994729;28;20145;-53
2022/09/01 02:41:40;;;;;;;0.55;0.38;;;;;;;;;;4994786;28;20058;-51
2022/09/01 02:44:10;;;;;;;0.82;0.30;;;;;;;;;;4994095;28;20490;-49
2022/09/01 02:46:40;;;;;;;0.82;0.40;;;;;;;;;;4994334;28;20151;-53
2022/09/01 02:49:14;;;;;;;1.77;0.30;;;;;;;;;;4994598;28;20058;-51
2022/09/01 02:51:41;;;;;;;0.40;0.20;;;;;;;;;;4994832;28;20056;-50
2022/09/01 02:54:07;;;;;;;1.00;0.30;;;;;;;;;;4975586;28;20061;-51
2022/09/01 02:56:35;;;;;;;1.52;0.28;;;;;;;;;;4978202;28;20055;-50
2022/09/01 02:59:01;;;;;;;0.73;0.30;;;;;;;;;;5014210;28;20049;-50
2022/09/01 03:01:38;;;;;;;0.55;0.25;;;;;;;;;;5014191;28;20053;-51
2022/09/01 03:04:06;;;;;;;0.70;0.30;;;;;;;;;;5013755;28;20068;-52
2022/09/01 03:06:38;;;;;;;1.35;0.40;;;;;;;;;;5004330;28;20066;-52
2022/09/01 03:09:15;;;;;;;1.17;0.30;;;;;;;;;;4994227;28;20442;-52
2022/09/01 03:11:49;;;;;;;0.50;0.30;;;;;;;;;;4994102;28;20463;-52
2022/09/01 03:14:19;;;;;;;0.65;0.45;;;;;;;;;;4994464;28;20132;-52
2022/09/01 03:16:49;;;;;;;1.05;0.30;;;;;;;;;;4994501;28;20058;-50
2022/09/01 03:19:18;;;;;;;2.08;0.47;;;;;;;;;;4994116;28;20061;-49
2022/09/01 03:21:48;;;;;;;2.10;0.40;;;;;;;;;;4993815;28;20066;-51
2022/09/01 03:24:20;;;;;;;1.17;0.40;;;;;;;;;;4994429;28;20046;-50
2022/09/01 03:26:52;;;;;;;1.20;0.40;;;;;;;;;;4994489;28;20082;-52
2022/09/01 03:29:21;;;;;;;0.85;0.30;;;;;;;;;;4994385;28;20046;-50
2022/09/01 03:31:53;;;;;;;0.77;0.45;;;;;;;;;;4994144;28;20138;-50
2022/09/01 03:34:22;;;;;;;1.50;0.40;;;;;;;;;;4993707;28;20365;-51
2022/09/01 03:36:53;;;;;;;1.90;0.40;;;;;;;;;;4994151;28;20140;-52
2022/09/01 03:39:20;;;;;;;2.55;0.57;;;;;;;;;;4993931;28;20060;-52
2022/09/01 03:41:47;;;;;;;1.98;0.45;;;;;;;;;;4994010;28;20054;-52
2022/09/01 03:44:15;;;;;;;2.10;0.50;;;;;;;;;;4993869;28;20054;-50
2022/09/01 03:46:42;;;;;;;1.13;0.40;;;;;;;;;;4993398;28;20050;-50
2022/09/01 03:49:27;;;;;;;1.42;0.40;;;;;;;;;;4993537;28;20064;-53
2022/09/01 03:51:59;;;;;;;2.63;0.40;;;;;;;;;;4992388;28;20046;-49
2022/09/01 03:54:29;;;;;;;1.20;0.40;;;;;;;;;;4974146;28;20051;-51
2022/09/01 03:56:59;;;;;;;0.93;0.40;;;;;;;;;;4982735;28;20108;-52
2022/09/01 03:59:28;;;;;;;1.35;0.60;;;;;;;;;;5013079;28;20061;-52
2022/09/01 04:01:58;;;;;;;0.50;0.30;;;;;;;;;;5010860;28;20084;-50
2022/09/01 04:04:31;;;;;;;0.77;0.43;;;;;;;;;;4993687;28;20054;-52
2022/09/01 04:06:58;;;;;;;0.40;0.30;;;;;;;;;;4993705;28;20487;-49
2022/09/01 04:09:26;;;;;;;2.05;0.40;;;;;;;;;;4993841;28;20070;-52
2022/09/01 04:11:54;;;;;;;0.80;0.30;;;;;;;;;;4993628;28;20057;-50
2022/09/01 04:14:24;;;;;;;0.60;0.30;;;;;;;;;;4993814;28;20054;-51
2022/09/01 04:19:42;;;;;;;2.17;0.50;;;;;;;;;;4993511;28;20069;-49
2022/09/01 04:22:16;;;;;;;0.50;0.30;;;;;;;;;;4993419;28;20062;-52
2022/09/01 04:24:45;;;;;;;1.52;0.40;;;;;;;;;;4993521;28;20093;-50
2022/09/01 04:27:16;;;;;;;0.52;0.30;;;;;;;;;;4993701;28;20058;-53
2022/09/01 04:29:46;;;;;;;1.55;0.65;;;;;;;;;;4993395;28;20368;-52
2022/09/01 04:32:20;;;;;;;0.32;0.20;;;;;;;;;;4993663;28;20046;-53
2022/09/01 04:35:03;;;;;;;2.28;0.40;;;;;;;;;;4993637;28;20065;-49
2022/09/01 04:37:35;;;;;;;1.38;0.30;;;;;;;;;;4993472;28;20050;-50
2022/09/01 04:40:05;;;;;;;1.90;0.63;;;;;;;;;;4992880;28;20050;-49
2022/09/01 04:45:14;;;;;;;2.05;0.30;;;;;;;;;;4993440;28;20344;-49
2022/09/01 04:47:45;;;;;;;2.13;0.32;;;;;;;;;;4993496;28;20073;-49
2022/09/01 04:50:24;;;;;;;0.55;0.30;;;;;;;;;;4993475;28;20537;-50
2022/09/01 04:52:53;;;;;;;1.08;0.60;;;;;;;;;;4984668;28;20047;-52
2022/09/01 04:55:23;;;;;;;1.70;0.50;;;;;;;;;;4973764;28;20051;-50
2022/09/01 04:57:53;;;;;;;2.45;0.50;;;;;;;;;;4997617;28;20137;-53
2022/09/01 05:00:30;;;;;;;0.75;0.38;;;;;;;;;;4977561;28;20066;-51
2022/09/01 05:03:03;;;;;;;1.45;0.40;;;;;;;;;;4977505;28;20046;-52
2022/09/01 05:05:41;;;;;;;2.17;0.50;;;;;;;;;;4977330;28;20135;-52
2022/09/01 05:08:13;;;;;;;0.52;0.30;;;;;;;;;;4977418;28;20058;-50
2022/09/01 05:10:41;;;;;;;1.75;0.30;;;;;;;;;;4977159;28;20094;-50
2022/09/01 05:13:08;;;;;;;0.68;0.40;;;;;;;;;;4996156;28;20141;-49
2022/09/01 05:15:45;;;;;;;2.08;0.55;;;;;;;;;;4996743;28;20137;-49
2022/09/01 05:18:14;;;;;;;1.35;0.40;;;;;;;;;;4996362;28;20430;-50
2022/09/01 05:20:46;;;;;;;0.90;0.50;;;;;;;;;;4996540;28;20089;-50
2022/09/01 05:23:18;;;;;;;1.42;0.50;;;;;;;;;;4995952;28;20479;-50
2022/09/01 05:25:52;;;;;;;1.65;0.45;;;;;;;;;;4996193;28;20502;-50
2022/09/01 05:28:24;;;;;;;0.63;0.40;;;;;;;;;;4996297;28;20049;-50
2022/09/01 05:30:54;;;;;;;0.70;0.40;;;;;;;;;;4996541;28;20061;-49
2022/09/01 05:33:24;;;;;;;2.55;0.40;;;;;;;;;;4996175;28;20367;-50
2022/09/01 05:35:57;;;;;;;2.03;0.50;;;;;;;;;;4996185;28;20104;-49
2022/09/01 05:38:25;;;;;;;1.58;0.57;;;;;;;;;;4996137;28;20057;-50
2022/09/01 05:41:00;;;;;;;1.48;0.47;;;;;;;;;;4995833;28;20380;-50
2022/09/01 05:43:32;;;;;;;2.15;0.30;;;;;;;;;;4996409;28;20094;-51
2022/09/01 05:46:02;;;;;;;1.08;0.60;;;;;;;;;;4995940;28;20060;-52
2022/09/01 05:48:33;;;;;;;3.83;0.70;;;;;;;;;;4996276;28;20058;-50
2022/09/01 05:51:15;;;;;;;1.08;0.40;;;;;;;;;;4995996;28;20069;-51
2022/09/01 05:53:42;;;;;;;0.95;0.45;;;;;;;;;;4995769;28;20109;-50
2022/09/01 05:56:13;;;;;;;4.82;0.70;;;;;;;;;;4995379;28;20054;-52
2022/09/01 05:58:45;;;;;;;2.45;0.47;;;;;;;;;;5014241;28;20056;-50
2022/09/01 06:01:20;;;;;;;0.68;0.40;;;;;;;;;;5015242;28;20104;-52
2022/09/01 06:03:59;;;;;;;0.80;0.40;;;;;;;;;;5009042;28;20053;-53
2022/09/01 06:06:39;;;;;;;1.15;0.43;;;;;;;;;;4993852;28;20104;-50
2022/09/01 06:09:10;;;;;;;3.08;0.55;;;;;;;;;;4991777;28;20058;-51
2022/09/01 06:11:41;;;;;;;2.03;0.60;;;;;;;;;;4990594;28;20085;-52
2022/09/01 06:14:11;;;;;;;2.17;0.60;;;;;;;;;;4987956;28;20050;-53
2022/09/01 06:16:38;;;;;;;2.42;0.50;;;;;;;;;;4994610;28;20117;-53
2022/09/01 06:19:05;;;;;;;0.70;0.40;;;;;;;;;;4994920;28;20050;-51
2022/09/01 06:21:33;;;;;;;2.10;0.65;;;;;;;;;;4994257;28;20148;-50
2022/09/01 06:24:00;;;;;;;1.30;0.30;;;;;;;;;;4994028;28;20105;-50
2022/09/01 06:26:28;;;;;;;0.52;0.20;;;;;;;;;;4993925;28;20498;-49
2022/09/01 06:28:56;;;;;;;0.75;0.30;;;;;;;;;;4994162;28;20149;-50
2022/09/01 06:31:23;;;;;;;0.68;0.30;;;;;;;;;;4994389;28;20050;-53
2022/09/01 06:33:52;;;;;;;4.07;0.40;;;;;;;;;;4994773;28;20060;-50
2022/09/01 06:36:20;;;;;;;1.35;0.50;;;;;;;;;;4994237;28;20054;-50
2022/09/01 06:38:48;;;;;;;1.63;0.90;;;;;;;;;;4997059;28;20038;-51
2022/09/01 06:41:18;;;;;;;0.75;0.45;;;;;;;;;;4993929;28;20065;-51
2022/09/01 06:43:44;;;;;;;1.15;0.30;;;;;;;;;;4994088;28;20088;-52
2022/09/01 06:46:11;;;;;;;1.30;0.20;;;;;;;;;;4993985;28;20050;-50
2022/09/01 06:48:45;;;;;;;0.85;0.38;;;;;;;;;;4994014;28;20447;-52
2022/09/01 06:51:12;;;;;;;2.17;0.30;;;;;;;;;;4994198;28;20061;-51
2022/09/01 06:53:39;;;;;;;2.78;0.50;;;;;;;;;;4999826;28;20133;-51
2022/09/01 06:56:08;;;;;;;0.88;0.30;;;;;;;;;;5002747;28;20096;-50
2022/09/01 06:58:34;;;;;;;1.23;0.30;;;;;;;;;;4997098;28;20093;-53
2022/09/01 07:01:05;;;;;;;0.80;0.40;;;;;;;;;;4993946;28;20050;-50
2022/09/01 07:03:32;;;;;;;1.27;0.30;;;;;;;;;;4994041;28;20050;-50
2022/09/01 07:05:59;;;;;;;1.95;0.25;;;;;;;;;;4996213;28;20050;-54
2022/09/01 07:08:27;;;;;;;1.95;0.47;;;;;;;;;;4999310;28;20529;-51
2022/09/01 07:10:54;;;;;;;1.15;0.35;;;;;;;;;;4992610;28;20677;-50
2022/09/01 07:13:22;;;;;;;2.47;0.30;;;;;;;;;;4993102;28;20141;-50
2022/09/01 07:15:49;;;;;;;0.55;0.30;;;;;;;;;;4993667;28;20057;-52
2022/09/01 07:18:16;;;;;;;0.55;0.30;;;;;;;;;;4995090;28;20058;-51
2022/09/01 07:20:43;;;;;;;0.50;0.30;;;;;;;;;;4995098;28;20370;-52
2022/09/01 07:23:10;;;;;;;2.25;0.40;;;;;;;;;;4991941;28;20065;-53
2022/09/01 07:25:40;;;;;;;1.10;0.30;;;;;;;;;;4993365;28;20375;-52
2022/09/01 07:28:07;;;;;;;1.23;0.30;;;;;;;;;;4993254;28;20069;-52
2022/09/01 07:30:39;;;;;;;1.60;0.52;;;;;;;;;;4992607;28;20065;-52
2022/09/01 07:33:10;;;;;;;0.80;0.30;;;;;;;;;;4993191;28;20440;-52
2022/09/01 07:35:37;;;;;;;1.60;0.45;;;;;;;;;;4992796;28;20062;-50
2022/09/01 07:38:05;;;;;;;4.40;0.50;;;;;;;;;;4993287;28;20069;-52
2022/09/01 07:40:33;;;;;;;2.08;0.47;;;;;;;;;;4992285;28;20050;-51
2022/09/01 07:42:59;;;;;;;1.63;0.40;;;;;;;;;;4993107;28;20061;-51
2022/09/01 07:45:26;;;;;;;2.67;0.55;;;;;;;;;;4993021;28;20058;-53
2022/09/01 07:47:54;;;;;;;0.85;0.40;;;;;;;;;;4992744;28;20058;-51
2022/09/01 07:50:23;;;;;;;2.50;0.70;;;;;;;;;;4992883;28;20050;-51
2022/09/01 07:52:51;;;;;;;1.10;0.47;;;;;;;;;;4992654;28;20108;-51
2022/09/01 07:55:20;;;;;;;1.30;0.40;;;;;;;;;;4992877;28;20144;-51
2022/09/01 07:57:51;;;;;;;1.63;0.57;;;;;;;;;;4995830;28;20051;-51
2022/09/01 08:00:20;;;;;;;1.20;0.40;;;;;;;;;;4992483;28;20082;-51
2022/09/01 08:02:51;;;;;;;2.65;0.50;;;;;;;;;;4992151;28;20073;-50
2022/09/01 08:05:21;;;;;;;1.02;0.50;;;;;;;;;;4993262;28;20108;-53
2022/09/01 08:07:48;;;;;;;0.68;0.40;;;;;;;;;;4993122;28;20057;-52
2022/09/01 08:10:15;;;;;;;1.27;0.47;;;;;;;;;;4991995;28;20077;-51
2022/09/01 08:12:41;;;;;;;0.70;0.30;;;;;;;;;;4992815;28;20137;-55
2022/09/01 08:15:10;;;;;;;0.93;0.35;;;;;;;;;;4992815;28;20050;-56
2022/09/01 08:17:37;;;;;;;0.57;0.30;;;;;;;;;;4992715;28;20082;-53
2022/09/01 08:20:07;;;;;;;1.30;0.40;;;;;;;;;;4992135;28;20046;-52
2022/09/01 08:22:36;;;;;;;1.02;0.43;;;;;;;;;;4992254;28;20057;-52
2022/09/01 08:25:03;;;;;;;0.73;0.20;;;;;;;;;;4992271;28;20054;-54
2022/09/01 08:27:31;;;;;;;1.58;0.30;;;;;;;;;;4992098;28;20551;-51
2022/09/01 08:29:59;;;;;;;0.50;0.30;;;;;;;;;;4992168;28;20081;-52
2022/09/01 08:32:26;;;;;;;0.88;0.30;;;;;;;;;;4992453;28;20129;-52
2022/09/01 08:34:52;;;;;;;1.40;0.30;;;;;;;;;;4995583;28;20458;-51
2022/09/01 08:37:19;;;;;;;1.10;0.30;;;;;;;;;;4996265;28;20065;-52
2022/09/01 08:39:48;;;;;;;0.70;0.30;;;;;;;;;;4995536;28;20054;-52
2022/09/01 08:42:18;;;;;;;3.13;0.40;;;;;;;;;;4996375;28;20046;-53
2022/09/01 08:44:47;;;;;;;1.55;0.43;;;;;;;;;;4991393;28;20042;-51
2022/09/01 08:47:16;;;;;;;1.77;0.50;;;;;;;;;;4995983;28;20061;-53
2022/09/01 08:49:44;;;;;;;1.05;0.30;;;;;;;;;;4995936;28;20053;-50
2022/09/01 08:52:15;;;;;;;1.42;0.60;;;;;;;;;;4996371;28;20046;-50
2022/09/01 08:54:44;;;;;;;1.55;0.30;;;;;;;;;;4996274;28;20057;-51
2022/09/01 08:57:16;;;;;;;0.75;0.20;;;;;;;;;;4998290;28;20687;-53
2022/09/01 08:59:42;;;;;;;0.52;0.30;;;;;;;;;;4995911;28;20359;-54
2022/09/01 09:02:29;;;;;;;0.55;0.20;;;;;;;;;;4996098;28;20129;-52
2022/09/01 09:05:02;;;;;;;1.75;0.30;;;;;;;;;;4995901;28;20639;-51
2022/09/01 09:07:37;;;;;;;1.35;0.35;;;;;;;;;;4995304;28;20489;-54
2022/09/01 09:10:09;;;;;;;0.95;0.30;;;;;;;;;;4995978;28;20062;-54
2022/09/01 09:12:46;;;;;;;3.25;0.20;;;;;;;;;;4995905;28;20058;-52
2022/09/01 09:15:16;;;;;;;0.80;0.30;;;;;;;;;;4995633;28;20078;-52
2022/09/01 09:17:48;;;;;;;0.82;0.30;;;;;;;;;;4995467;28;20050;-53
2022/09/01 09:20:14;;;;;;;1.02;0.40;;;;;;;;;;4995825;28;20077;-52
2022/09/01 09:22:41;;;;;;;1.42;0.30;;;;;;;;;;4994892;28;20069;-54
2022/09/01 09:25:09;;;;;;;1.25;0.47;;;;;;;;;;4995134;28;20105;-51
2022/09/01 09:27:40;;;;;;;2.08;0.40;;;;;;;;;;4994365;28;20058;-52
2022/09/01 09:30:08;;;;;;;1.38;0.35;;;;;;;;;;4995761;28;20066;-52
2022/09/01 09:32:46;;;;;;;1.50;0.40;;;;;;;;;;4995564;28;20065;-51
2022/09/01 09:35:28;;;;;;;1.40;0.40;;;;;;;;;;4995183;28;20471;-55
2022/09/01 09:37:54;;;;;;;1.70;0.40;;;;;;;;;;4994932;28;20042;-54
2022/09/01 09:40:21;;;;;;;0.80;0.30;;;;;;;;;;4994482;28;20455;-54
2022/09/01 09:43:03;;;;;;;1.58;0.40;;;;;;;;;;4995163;28;20046;-51
2022/09/01 09:45:32;;;;;;;2.00;0.45;;;;;;;;;;4980425;28;20054;-52
2022/09/01 09:47:59;;;;;;;1.73;0.47;;;;;;;;;;4994961;28;20379;-52
2022/09/01 09:50:26;;;;;;;1.13;0.45;;;;;;;;;;4995189;28;20088;-49
2022/09/01 09:52:54;;;;;;;0.60;0.30;;;;;;;;;;4994997;28;20352;-54
2022/09/01 09:55:25;;;;;;;1.23;0.40;;;;;;;;;;4995002;28;20064;-50
2022/09/01 09:57:54;;;;;;;0.68;0.32;;;;;;;;;;4997758;28;20363;-54
2022/09/01 10:00:22;;;;;;;1.00;0.32;;;;;;;;;;4995095;28;20050;-51
2022/09/01 10:02:51;;;;;;;2.17;0.40;;;;;;;;;;4994636;28;20474;-52
2022/09/01 10:05:34;;;;;;;1.33;0.40;;;;;;;;;;4994020;28;20064;-53
2022/09/01 10:08:00;;;;;;;0.60;0.22;;;;;;;;;;4994953;28;20137;-52
2022/09/01 10:10:29;;;;;;;0.95;0.30;;;;;;;;;;4994308;28;20054;-52
2022/09/01 10:12:56;;;;;;;1.17;0.32;;;;;;;;;;4994360;28;20050;-54
2022/09/01 10:15:25;;;;;;;0.80;0.47;;;;;;;;;;4994352;28;20048;-51
2022/09/01 10:17:52;;;;;;;1.58;0.40;;;;;;;;;;4994702;28;20469;-52
2022/09/01 10:20:20;;;;;;;1.58;0.40;;;;;;;;;;4994098;28;20058;-52
2022/09/01 10:22:46;;;;;;;1.38;0.57;;;;;;;;;;4993537;28;20054;-51
2022/09/01 10:25:16;;;;;;;1.13;0.50;;;;;;;;;;4993542;28;20584;-51
2022/09/01 10:27:45;;;;;;;2.78;0.40;;;;;;;;;;4994269;28;20058;-52
2022/09/01 10:30:13;;;;;;;0.60;0.40;;;;;;;;;;4994149;28;20518;-54
2022/09/01 10:32:42;;;;;;;1.05;0.40;;;;;;;;;;4994457;28;20050;-55
2022/09/01 10:35:12;;;;;;;1.48;0.30;;;;;;;;;;4993689;28;20046;-54
2022/09/01 10:37:39;;;;;;;1.10;0.30;;;;;;;;;;4993791;28;20526;-52
2022/09/01 10:40:13;;;;;;;1.55;0.40;;;;;;;;;;4993682;28;20042;-54
2022/09/01 10:42:41;;;;;;;2.20;0.53;;;;;;;;;;4994679;28;20050;-54
2022/09/01 10:45:17;;;;;;;1.52;0.50;;;;;;;;;;4993712;28;20367;-52
2022/09/01 10:47:45;;;;;;;1.45;0.20;;;;;;;;;;4993630;28;20050;-53
2022/09/01 10:50:26;;;;;;;0.70;0.47;;;;;;;;;;4993844;28;20046;-54
2022/09/01 10:52:59;;;;;;;1.50;0.35;;;;;;;;;;4993534;28;20051;-53
2022/09/01 10:55:28;;;;;;;1.08;0.30;;;;;;;;;;4979293;28;20038;-50
2022/09/01 10:58:00;;;;;;;3.10;0.47;;;;;;;;;;4992424;28;20056;-50
2022/09/01 11:00:51;;;;;;;3.55;0.50;;;;;;;;;;4991531;28;20401;-50
2022/09/01 11:03:43;;;;;;;4.28;0.88;;;;;;;;;;4988578;28;20058;-53
2022/09/01 11:06:31;;;;;;;1.60;0.40;;;;;;;;;;4992059;28;20082;-51
2022/09/01 11:09:01;;;;;;;1.65;0.68;;;;;;;;;;4994063;28;20056;-50
2022/09/01 11:11:38;;;;;;;1.30;0.35;;;;;;;;;;4992354;28;20050;-53
2022/09/01 11:14:16;;;;;;;0.90;0.30;;;;;;;;;;4989939;28;20046;-54
2022/09/01 11:16:42;;;;;;;0.50;0.20;;;;;;;;;;4992596;28;20641;-52
2022/09/01 11:19:24;;;;;;;0.93;0.20;;;;;;;;;;4994447;28;20435;-50
2022/09/01 11:22:05;;;;;;;0.40;0.20;;;;;;;;;;4992804;28;20066;-50
2022/09/01 11:24:47;;;;;;;1.48;0.30;;;;;;;;;;4992455;28;20638;-52
2022/09/01 11:27:33;;;;;;;1.05;0.10;;;;;;;;;;4992910;28;20052;-50
2022/09/01 11:30:01;;;;;;;1.05;0.20;;;;;;;;;;4992966;28;20046;-51
2022/09/01 11:32:36;;;;;;;1.17;0.30;;;;;;;;;;4991663;28;20459;-54
2022/09/01 11:35:03;;;;;;;1.95;0.38;;;;;;;;;;4992691;28;20050;-54
2022/09/01 11:37:32;;;;;;;0.90;0.20;;;;;;;;;;4992888;28;20093;-50
2022/09/01 11:40:00;;;;;;;1.88;0.40;;;;;;;;;;4992781;28;20490;-50
2022/09/01 11:42:28;;;;;;;1.70;0.30;;;;;;;;;;4992839;28;20061;-52
2022/09/01 11:44:57;;;;;;;0.88;0.30;;;;;;;;;;4993232;28;20057;-49
2022/09/01 11:47:25;;;;;;;0.43;0.30;;;;;;;;;;4992924;28;20141;-52
2022/09/01 11:49:52;;;;;;;0.82;0.30;;;;;;;;;;4992269;28;20112;-48
2022/09/01 11:52:20;;;;;;;1.17;0.20;;;;;;;;;;4993002;28;20069;-49
2022/09/01 11:54:48;;;;;;;1.33;0.30;;;;;;;;;;4993110;28;20046;-49
2022/09/01 11:57:19;;;;;;;1.02;0.43;;;;;;;;;;4991034;28;20058;-48
2022/09/01 11:59:46;;;;;;;0.68;0.35;;;;;;;;;;4991030;28;20073;-48
2022/09/01 12:02:17;;;;;;;0.43;0.13;;;;;;;;;;4992882;28;20066;-51
2022/09/01 12:04:43;;;;;;;0.50;0.30;;;;;;;;;;4989757;28;20042;-48
2022/09/01 12:07:12;;;;;;;0.75;0.40;;;;;;;;;;4990187;28;20054;-51
2022/09/01 12:09:41;;;;;;;1.67;0.38;;;;;;;;;;4994638;28;20062;-50
2022/09/01 12:12:25;;;;;;;2.08;0.40;;;;;;;;;;4997123;28;20058;-50
2022/09/01 12:14:57;;;;;;;1.98;0.40;;;;;;;;;;4996591;28;20150;-50
2022/09/01 12:17:23;;;;;;;1.17;0.45;;;;;;;;;;4996571;28;20061;-50
2022/09/01 12:19:49;;;;;;;1.40;0.50;;;;;;;;;;4996415;28;20538;-51
2022/09/01 12:22:18;;;;;;;1.08;0.40;;;;;;;;;;4996493;28;20487;-49
2022/09/01 12:24:45;;;;;;;1.20;0.57;;;;;;;;;;4997007;28;20076;-49
2022/09/01 12:27:12;;;;;;;0.77;0.20;;;;;;;;;;4995857;28;20145;-48
2022/09/01 12:29:39;;;;;;;0.40;0.30;;;;;;;;;;4995559;28;20051;-48
2022/09/01 12:32:08;;;;;;;1.40;0.20;;;;;;;;;;4995866;28;20068;-48
2022/09/01 12:34:38;;;;;;;1.60;0.32;;;;;;;;;;4996246;28;20050;-47
2022/09/01 12:37:06;;;;;;;0.80;0.30;;;;;;;;;;4996738;28;20057;-51
2022/09/01 12:39:33;;;;;;;2.22;0.40;;;;;;;;;;4996088;28;20046;-49
2022/09/01 12:42:06;;;;;;;0.63;0.30;;;;;;;;;;4996749;28;20069;-50
2022/09/01 12:44:34;;;;;;;0.70;0.30;;;;;;;;;;4996844;28;20375;-49
2022/09/01 12:47:01;;;;;;;0.90;0.25;;;;;;;;;;4996525;28;20050;-49
2022/09/01 12:49:36;;;;;;;1.50;0.50;;;;;;;;;;4996280;28;20054;-51
2022/09/01 12:52:02;;;;;;;;;;;;;;;;;;4996686;28;20475;-49
2022/09/01 12:54:29;;;;;;;1.45;0.40;;;;;;;;;;4995935;28;20266;-49
2022/09/01 12:56:56;;;;;;;0.50;0.20;;;;;;;;;;4998700;28;20054;-50
2022/09/01 12:59:24;;;;;;;1.05;0.30;;;;;;;;;;4995015;28;20086;-48
2022/09/01 13:01:50;;;;;;;1.20;0.30;;;;;;;;;;4995476;28;20050;-48
2022/09/01 13:04:28;;;;;;;1.00;0.25;;;;;;;;;;4995561;28;20085;-48
2022/09/01 13:06:57;;;;;;;1.48;0.20;;;;;;;;;;4993024;28;20133;-49
2022/09/01 13:09:23;;;;;;;0.85;0.17;;;;;;;;;;4995944;28;20050;-48
2022/09/01 13:11:50;;;;;;;1.35;0.50;;;;;;;;;;4995910;28;20073;-48
2022/09/01 13:14:17;;;;;;;0.22;0.20;;;;;;;;;;4995959;28;20054;-50
2022/09/01 13:16:44;;;;;;;2.83;0.22;;;;;;;;;;4995537;28;20054;-48
2022/09/01 13:19:10;;;;;;;1.00;0.40;;;;;;;;;;4995199;28;20658;-48
2022/09/01 13:21:37;;;;;;;1.40;0.40;;;;;;;;;;4994887;28;20084;-47
2022/09/01 13:24:06;;;;;;;2.88;0.20;;;;;;;;;;4993834;28;20063;-47
2022/09/01 13:26:32;;;;;;;1.00;0.30;;;;;;;;;;4995199;28;20056;-47
2022/09/01 13:28:59;;;;;;;2.17;0.28;;;;;;;;;;4995849;28;20138;-48
2022/09/01 13:31:28;;;;;;;1.70;0.30;;;;;;;;;;4995037;28;20058;-48
2022/09/01 13:33:54;;;;;;;0.85;0.40;;;;;;;;;;4996107;28;20077;-50
2022/09/01 13:36:20;;;;;;;1.58;0.30;;;;;;;;;;4995671;28;20049;-46
2022/09/01 13:38:48;;;;;;;0.98;0.55;;;;;;;;;;4995607;28;20058;-47
2022/09/01 13:41:18;;;;;;;1.33;0.40;;;;;;;;;;4995877;28;20056;-49
2022/09/01 13:43:46;;;;;;;0.55;0.28;;;;;;;;;;4995935;28;20057;-47
2022/09/01 13:46:15;;;;;;;0.77;0.20;;;;;;;;;;4995459;28;20494;-46
2022/09/01 13:48:45;;;;;;;3.45;0.50;;;;;;;;;;4994651;28;20050;-48
2022/09/01 13:51:15;;;;;;;1.02;0.20;;;;;;;;;;4987806;28;20064;-48
2022/09/01 13:53:44;;;;;;;4.82;0.30;;;;;;;;;;4995134;28;20050;-48
2022/09/01 13:56:10;;;;;;;0.60;0.20;;;;;;;;;;4994369;28;20368;-47
2022/09/01 13:58:38;;;;;;;0.90;0.20;;;;;;;;;;4995241;28;20136;-47
2022/09/01 14:01:06;;;;;;;0.95;0.20;;;;;;;;;;4995184;28;20477;-46
2022/09/01 14:03:33;;;;;;;2.35;0.20;;;;;;;;;;4995061;28;20050;-47
2022/09/01 14:06:00;;;;;;;0.10;0.10;;;;;;;;;;4995215;28;20046;-47
2022/09/01 14:08:29;;;;;;;1.10;0.20;;;;;;;;;;4994150;28;20062;-48
2022/09/01 14:10:57;;;;;;;0.57;0.10;;;;;;;;;;4995315;28;20058;-47
2022/09/01 14:13:24;;;;;;;0.43;0.20;;;;;;;;;;4995308;28;20089;-46
2022/09/01 14:15:52;;;;;;;1.02;0.20;;;;;;;;;;4994727;28;20050;-47
2022/09/01 14:18:20;;;;;;;0.73;0.20;;;;;;;;;;4994948;28;20136;-47
2022/09/01 14:20:49;;;;;;;0.63;0.20;;;;;;;;;;4994109;28;20058;-46
2022/09/01 14:23:15;;;;;;;0.15;0.10;;;;;;;;;;4994496;28;20070;-47
2022/09/01 14:25:45;;;;;;;0.73;0.17;;;;;;;;;;4994555;28;20490;-48
2022/09/01 14:28:11;;;;;;;1.08;0.40;;;;;;;;;;4994129;28;20054;-47
2022/09/01 14:30:41;;;;;;;1.00;0.32;;;;;;;;;;4995189;28;20060;-50
2022/09/01 14:33:11;;;;;;;1.00;0.50;;;;;;;;;;4994366;28;20058;-49
2022/09/01 14:35:39;;;;;;;2.85;0.30;;;;;;;;;;4994402;28;20133;-48
2022/09/01 14:38:07;;;;;;;1.02;0.40;;;;;;;;;;4993912;28;20058;-47
2022/09/01 14:40:37;;;;;;;2.83;0.28;;;;;;;;;;4993980;28;20486;-47
2022/09/01 14:43:08;;;;;;;1.05;0.30;;;;;;;;;;4994699;28;20129;-47
2022/09/01 14:45:36;;;;;;;2.75;0.30;;;;;;;;;;4993649;28;20134;-47
2022/09/01 14:48:04;;;;;;;2.95;0.30;;;;;;;;;;4994782;28;20096;-47
2022/09/01 14:50:34;;;;;;;0.40;0.20;;;;;;;;;;4994604;28;20058;-46
2022/09/01 14:53:02;;;;;;;0.20;0.20;;;;;;;;;;4993046;28;20064;-47
2022/09/01 14:55:29;;;;;;;0.90;0.40;;;;;;;;;;4993698;28;20503;-49
2022/09/01 14:57:58;;;;;;;1.52;0.30;;;;;;;;;;4994240;28;20056;-48
2022/09/01 15:00:25;;;;;;;1.33;0.20;;;;;;;;;;4994537;28;20193;-46
2022/09/01 15:02:53;;;;;;;0.73;0.28;;;;;;;;;;4993477;28;20058;-49
2022/09/01 15:05:21;;;;;;;0.38;0.22;;;;;;;;;;4992434;28;20086;-48
2022/09/01 15:07:50;;;;;;;0.47;0.20;;;;;;;;;;4992513;28;20375;-51